sensor_id;sensor_type;location;lat;lon;timestamp;P1;durP1;ratioP1;P2;durP2;ratioP2
15712;SDS011;7957;51.608;6.916;2023-05-08T00:00:07;15.30;;;14.10;;
15712;SDS011;7957;51.608;6.916;2023-05-08T00:02:35;16.20;;;14.90;;
15712;SDS011;7957;51.608;6.916;2023-05-08T00:05:03;16.57;;;15.27;;
15712;SDS011;7957;51.608;6.916;2023-05-08T00:07:31;16.47;;;15.07;;
15712;SDS011;7957;51.608;6.916;2023-05-08T00:09:58;16.77;;;15.47;;
15712;SDS011;7957;51.608;6.916;2023-05-08T00:12:25;16.47;;;15.13;;
15712;SDS011;7957;51.608;6.916;2023-05-08T00:14:52;15.67;;;14.43;;
15712;SDS011;7957;51.608;6.916;2023-05-08T00:17:19;16.23;;;14.93;;
15712;SDS011;7957;51.608;6.916;2023-05-08T00:19:46;17.10;;;15.77;;
15712;SDS011;7957;51.608;6.916;2023-05-08T00:22:15;16.63;;;15.33;;
15712;SDS011;7957;51.608;6.916;2023-05-08T00:24:42;15.90;;;14.67;;
15712;SDS011;7957;51.608;6.916;2023-05-08T00:27:09;16.87;;;15.57;;
15712;SDS011;7957;51.608;6.916;2023-05-08T00:29:36;17.00;;;15.70;;
15712;SDS011;7957;51.608;6.916;2023-05-08T00:32:04;17.13;;;15.63;;
15712;SDS011;7957;51.608;6.916;2023-05-08T00:34:31;16.80;;;15.50;;
15712;SDS011;7957;51.608;6.916;2023-05-08T00:36:58;16.40;;;15.20;;
15712;SDS011;7957;51.608;6.916;2023-05-08T00:39:28;16.73;;;15.40;;
15712;SDS011;7957;51.608;6.916;2023-05-08T00:41:55;16.90;;;15.60;;
15712;SDS011;7957;51.608;6.916;2023-05-08T00:44:22;16.30;;;15.10;;
15712;SDS011;7957;51.608;6.916;2023-05-08T00:46:49;16.63;;;15.33;;
15712;SDS011;7957;51.608;6.916;2023-05-08T00:49:16;16.57;;;15.23;;
15712;SDS011;7957;51.608;6.916;2023-05-08T00:51:44;16.43;;;15.13;;
15712;SDS011;7957;51.608;6.916;2023-05-08T00:54:13;17.07;;;15.67;;
15712;SDS011;7957;51.608;6.916;2023-05-08T00:56:42;15.90;;;14.60;;
15712;SDS011;7957;51.608;6.916;2023-05-08T00:59:10;16.37;;;15.00;;
15712;SDS011;7957;51.608;6.916;2023-05-08T01:01:39;15.73;;;14.53;;
15712;SDS011;7957;51.608;6.916;2023-05-08T01:04:06;15.57;;;14.30;;
15712;SDS011;7957;51.608;6.916;2023-05-08T01:06:33;16.33;;;15.03;;
15712;SDS011;7957;51.608;6.916;2023-05-08T01:09:00;15.90;;;14.70;;
15712;SDS011;7957;51.608;6.916;2023-05-08T01:11:30;16.03;;;14.83;;
15712;SDS011;7957;51.608;6.916;2023-05-08T01:14:06;15.50;;;14.30;;
15712;SDS011;7957;51.608;6.916;2023-05-08T01:16:43;15.80;;;14.60;;
15712;SDS011;7957;51.608;6.916;2023-05-08T01:19:36;16.50;;;15.10;;
15712;SDS011;7957;51.608;6.916;2023-05-08T01:22:21;15.53;;;14.33;;
15712;SDS011;7957;51.608;6.916;2023-05-08T01:28:37;16.30;;;15.00;;
15712;SDS011;7957;51.608;6.916;2023-05-08T01:31:23;16.37;;;15.13;;
15712;SDS011;7957;51.608;6.916;2023-05-08T01:34:01;17.00;;;15.60;;
15712;SDS011;7957;51.608;6.916;2023-05-08T01:36:32;16.67;;;15.37;;
15712;SDS011;7957;51.608;6.916;2023-05-08T01:39:12;16.10;;;14.70;;
15712;SDS011;7957;51.608;6.916;2023-05-08T01:41:45;15.73;;;14.43;;
15712;SDS011;7957;51.608;6.916;2023-05-08T01:44:17;17.03;;;15.73;;
15712;SDS011;7957;51.608;6.916;2023-05-08T01:46:47;15.00;;;13.87;;
15712;SDS011;7957;51.608;6.916;2023-05-08T01:49:19;16.73;;;15.23;;
15712;SDS011;7957;51.608;6.916;2023-05-08T01:51:52;15.80;;;14.53;;
15712;SDS011;7957;51.608;6.916;2023-05-08T01:54:25;15.87;;;14.67;;
15712;SDS011;7957;51.608;6.916;2023-05-08T01:56:56;15.37;;;14.07;;
15712;SDS011;7957;51.608;6.916;2023-05-08T01:59:24;15.37;;;14.00;;
15712;SDS011;7957;51.608;6.916;2023-05-08T02:01:53;15.70;;;14.40;;
15712;SDS011;7957;51.608;6.916;2023-05-08T02:04:23;15.57;;;14.37;;
15712;SDS011;7957;51.608;6.916;2023-05-08T02:06:52;15.50;;;14.27;;
15712;SDS011;7957;51.608;6.916;2023-05-08T02:09:21;15.80;;;14.53;;
15712;SDS011;7957;51.608;6.916;2023-05-08T02:11:49;15.60;;;14.30;;
15712;SDS011;7957;51.608;6.916;2023-05-08T02:14:18;15.97;;;14.77;;
15712;SDS011;7957;51.608;6.916;2023-05-08T02:16:46;15.97;;;14.77;;
15712;SDS011;7957;51.608;6.916;2023-05-08T02:19:14;16.13;;;14.73;;
15712;SDS011;7957;51.608;6.916;2023-05-08T02:21:43;15.27;;;14.07;;
15712;SDS011;7957;51.608;6.916;2023-05-08T02:24:11;18.13;;;14.57;;
15712;SDS011;7957;51.608;6.916;2023-05-08T02:26:40;15.87;;;14.67;;
15712;SDS011;7957;51.608;6.916;2023-05-08T02:29:09;15.60;;;14.30;;
15712;SDS011;7957;51.608;6.916;2023-05-08T02:31:36;15.67;;;14.27;;
15712;SDS011;7957;51.608;6.916;2023-05-08T02:34:05;15.67;;;14.47;;
15712;SDS011;7957;51.608;6.916;2023-05-08T02:36:34;15.87;;;14.67;;
15712;SDS011;7957;51.608;6.916;2023-05-08T02:39:05;15.27;;;14.13;;
15712;SDS011;7957;51.608;6.916;2023-05-08T02:41:36;15.33;;;13.97;;
15712;SDS011;7957;51.608;6.916;2023-05-08T02:44:06;14.73;;;13.53;;
15712;SDS011;7957;51.608;6.916;2023-05-08T02:46:35;15.30;;;14.17;;
15712;SDS011;7957;51.608;6.916;2023-05-08T02:49:11;15.13;;;13.93;;
15712;SDS011;7957;51.608;6.916;2023-05-08T02:51:45;15.70;;;14.57;;
15712;SDS011;7957;51.608;6.916;2023-05-08T02:54:20;14.90;;;13.70;;
15712;SDS011;7957;51.608;6.916;2023-05-08T02:56:54;15.53;;;14.33;;
15712;SDS011;7957;51.608;6.916;2023-05-08T02:59:27;14.67;;;13.47;;
15712;SDS011;7957;51.608;6.916;2023-05-08T03:01:58;14.73;;;13.63;;
15712;SDS011;7957;51.608;6.916;2023-05-08T03:04:30;14.53;;;13.43;;
15712;SDS011;7957;51.608;6.916;2023-05-08T03:07:00;15.20;;;14.00;;
15712;SDS011;7957;51.608;6.916;2023-05-08T03:09:34;15.07;;;13.97;;
15712;SDS011;7957;51.608;6.916;2023-05-08T03:12:06;14.07;;;13.07;;
15712;SDS011;7957;51.608;6.916;2023-05-08T03:14:39;15.03;;;13.87;;
15712;SDS011;7957;51.608;6.916;2023-05-08T03:17:11;15.47;;;14.27;;
15712;SDS011;7957;51.608;6.916;2023-05-08T03:19:40;15.13;;;13.87;;
15712;SDS011;7957;51.608;6.916;2023-05-08T03:22:10;14.23;;;13.10;;
15712;SDS011;7957;51.608;6.916;2023-05-08T03:24:41;14.20;;;13.10;;
15712;SDS011;7957;51.608;6.916;2023-05-08T03:27:09;15.00;;;13.90;;
15712;SDS011;7957;51.608;6.916;2023-05-08T03:29:37;15.13;;;13.93;;
15712;SDS011;7957;51.608;6.916;2023-05-08T03:32:05;14.93;;;13.83;;
15712;SDS011;7957;51.608;6.916;2023-05-08T03:34:33;14.83;;;13.73;;
15712;SDS011;7957;51.608;6.916;2023-05-08T03:37:01;14.70;;;13.60;;
15712;SDS011;7957;51.608;6.916;2023-05-08T03:39:28;14.53;;;13.43;;
15712;SDS011;7957;51.608;6.916;2023-05-08T03:41:57;15.23;;;14.13;;
15712;SDS011;7957;51.608;6.916;2023-05-08T03:44:24;15.27;;;13.97;;
15712;SDS011;7957;51.608;6.916;2023-05-08T03:46:55;14.97;;;13.87;;
15712;SDS011;7957;51.608;6.916;2023-05-08T03:49:24;15.20;;;14.10;;
15712;SDS011;7957;51.608;6.916;2023-05-08T03:51:51;14.73;;;13.53;;
15712;SDS011;7957;51.608;6.916;2023-05-08T03:54:19;15.70;;;14.53;;
15712;SDS011;7957;51.608;6.916;2023-05-08T03:56:49;14.87;;;13.77;;
15712;SDS011;7957;51.608;6.916;2023-05-08T03:59:22;14.93;;;13.83;;
15712;SDS011;7957;51.608;6.916;2023-05-08T04:01:58;14.60;;;13.40;;
15712;SDS011;7957;51.608;6.916;2023-05-08T04:04:35;14.20;;;13.10;;
15712;SDS011;7957;51.608;6.916;2023-05-08T04:07:07;14.90;;;13.70;;
15712;SDS011;7957;51.608;6.916;2023-05-08T04:09:38;14.37;;;13.27;;
15712;SDS011;7957;51.608;6.916;2023-05-08T04:12:12;14.63;;;13.37;;
15712;SDS011;7957;51.608;6.916;2023-05-08T04:14:46;15.00;;;13.80;;
15712;SDS011;7957;51.608;6.916;2023-05-08T04:17:16;15.30;;;14.10;;
15712;SDS011;7957;51.608;6.916;2023-05-08T04:19:54;14.50;;;13.40;;
15712;SDS011;7957;51.608;6.916;2023-05-08T04:22:26;15.87;;;14.57;;
15712;SDS011;7957;51.608;6.916;2023-05-08T04:24:57;14.73;;;13.60;;
15712;SDS011;7957;51.608;6.916;2023-05-08T04:27:27;15.10;;;13.93;;
15712;SDS011;7957;51.608;6.916;2023-05-08T04:29:56;14.40;;;13.33;;
15712;SDS011;7957;51.608;6.916;2023-05-08T04:32:23;14.90;;;13.70;;
15712;SDS011;7957;51.608;6.916;2023-05-08T04:34:52;15.50;;;14.30;;
15712;SDS011;7957;51.608;6.916;2023-05-08T04:37:21;15.33;;;14.20;;
15712;SDS011;7957;51.608;6.916;2023-05-08T04:39:49;15.43;;;14.23;;
15712;SDS011;7957;51.608;6.916;2023-05-08T04:42:16;14.70;;;13.60;;
15712;SDS011;7957;51.608;6.916;2023-05-08T04:44:43;14.80;;;13.70;;
15712;SDS011;7957;51.608;6.916;2023-05-08T04:47:12;14.47;;;13.37;;
15712;SDS011;7957;51.608;6.916;2023-05-08T04:49:39;14.87;;;13.40;;
15712;SDS011;7957;51.608;6.916;2023-05-08T04:52:06;15.27;;;13.97;;
15712;SDS011;7957;51.608;6.916;2023-05-08T04:54:33;14.70;;;13.50;;
15712;SDS011;7957;51.608;6.916;2023-05-08T04:57:00;14.23;;;13.13;;
15712;SDS011;7957;51.608;6.916;2023-05-08T04:59:27;15.53;;;14.43;;
15712;SDS011;7957;51.608;6.916;2023-05-08T05:01:54;14.37;;;13.27;;
15712;SDS011;7957;51.608;6.916;2023-05-08T05:04:23;14.93;;;13.80;;
15712;SDS011;7957;51.608;6.916;2023-05-08T05:06:50;14.43;;;13.33;;
15712;SDS011;7957;51.608;6.916;2023-05-08T05:09:17;15.07;;;13.87;;
15712;SDS011;7957;51.608;6.916;2023-05-08T05:11:44;14.50;;;13.20;;
15712;SDS011;7957;51.608;6.916;2023-05-08T05:14:11;14.60;;;13.50;;
15712;SDS011;7957;51.608;6.916;2023-05-08T05:16:38;14.37;;;13.27;;
15712;SDS011;7957;51.608;6.916;2023-05-08T05:19:05;14.73;;;13.57;;
15712;SDS011;7957;51.608;6.916;2023-05-08T05:21:33;14.10;;;13.10;;
15712;SDS011;7957;51.608;6.916;2023-05-08T05:24:02;14.43;;;13.33;;
15712;SDS011;7957;51.608;6.916;2023-05-08T05:26:29;15.00;;;13.70;;
15712;SDS011;7957;51.608;6.916;2023-05-08T05:28:55;14.70;;;13.50;;
15712;SDS011;7957;51.608;6.916;2023-05-08T05:31:22;14.43;;;13.33;;
15712;SDS011;7957;51.608;6.916;2023-05-08T05:33:49;14.30;;;13.20;;
15712;SDS011;7957;51.608;6.916;2023-05-08T05:36:16;14.40;;;13.30;;
15712;SDS011;7957;51.608;6.916;2023-05-08T05:38:44;14.50;;;13.40;;
15712;SDS011;7957;51.608;6.916;2023-05-08T05:41:11;14.13;;;13.10;;
15712;SDS011;7957;51.608;6.916;2023-05-08T05:43:39;14.07;;;12.97;;
15712;SDS011;7957;51.608;6.916;2023-05-08T05:46:06;14.07;;;12.97;;
15712;SDS011;7957;51.608;6.916;2023-05-08T05:48:35;14.43;;;13.20;;
15712;SDS011;7957;51.608;6.916;2023-05-08T05:51:02;14.57;;;13.47;;
15712;SDS011;7957;51.608;6.916;2023-05-08T05:53:30;13.57;;;12.53;;
15712;SDS011;7957;51.608;6.916;2023-05-08T05:55:58;14.47;;;13.37;;
15712;SDS011;7957;51.608;6.916;2023-05-08T05:58:25;13.57;;;12.47;;
15712;SDS011;7957;51.608;6.916;2023-05-08T06:00:53;14.30;;;13.20;;
15712;SDS011;7957;51.608;6.916;2023-05-08T06:03:21;13.03;;;11.93;;
15712;SDS011;7957;51.608;6.916;2023-05-08T06:05:48;11.67;;;10.87;;
15712;SDS011;7957;51.608;6.916;2023-05-08T06:08:14;13.80;;;12.63;;
15712;SDS011;7957;51.608;6.916;2023-05-08T06:10:43;13.30;;;12.40;;
15712;SDS011;7957;51.608;6.916;2023-05-08T06:13:11;13.30;;;12.30;;
15712;SDS011;7957;51.608;6.916;2023-05-08T06:15:38;12.80;;;11.90;;
15712;SDS011;7957;51.608;6.916;2023-05-08T06:18:05;13.87;;;12.87;;
15712;SDS011;7957;51.608;6.916;2023-05-08T06:20:32;12.10;;;11.30;;
15712;SDS011;7957;51.608;6.916;2023-05-08T06:23:00;12.20;;;11.27;;
15712;SDS011;7957;51.608;6.916;2023-05-08T06:25:26;13.70;;;12.70;;
15712;SDS011;7957;51.608;6.916;2023-05-08T06:27:55;12.97;;;12.03;;
15712;SDS011;7957;51.608;6.916;2023-05-08T06:30:23;12.50;;;11.57;;
15712;SDS011;7957;51.608;6.916;2023-05-08T06:32:50;12.63;;;11.73;;
15712;SDS011;7957;51.608;6.916;2023-05-08T06:35:17;13.00;;;12.00;;
15712;SDS011;7957;51.608;6.916;2023-05-08T06:37:44;12.67;;;11.67;;
15712;SDS011;7957;51.608;6.916;2023-05-08T06:40:11;13.60;;;12.57;;
15712;SDS011;7957;51.608;6.916;2023-05-08T06:42:39;12.67;;;11.77;;
15712;SDS011;7957;51.608;6.916;2023-05-08T06:45:06;12.97;;;11.97;;
15712;SDS011;7957;51.608;6.916;2023-05-08T06:47:35;12.77;;;11.83;;
15712;SDS011;7957;51.608;6.916;2023-05-08T06:50:02;13.57;;;12.47;;
15712;SDS011;7957;51.608;6.916;2023-05-08T06:52:30;12.77;;;11.73;;
15712;SDS011;7957;51.608;6.916;2023-05-08T06:54:57;12.30;;;11.40;;
15712;SDS011;7957;51.608;6.916;2023-05-08T06:57:23;14.57;;;13.17;;
15712;SDS011;7957;51.608;6.916;2023-05-08T06:59:53;14.63;;;13.27;;
15712;SDS011;7957;51.608;6.916;2023-05-08T07:02:20;15.70;;;14.17;;
15712;SDS011;7957;51.608;6.916;2023-05-08T07:04:48;15.53;;;14.33;;
15712;SDS011;7957;51.608;6.916;2023-05-08T07:07:15;14.07;;;12.97;;
15712;SDS011;7957;51.608;6.916;2023-05-08T07:09:42;14.53;;;13.33;;
15712;SDS011;7957;51.608;6.916;2023-05-08T07:12:09;15.60;;;14.27;;
15712;SDS011;7957;51.608;6.916;2023-05-08T07:14:36;14.10;;;12.87;;
15712;SDS011;7957;51.608;6.916;2023-05-08T07:17:03;13.60;;;12.40;;
15712;SDS011;7957;51.608;6.916;2023-05-08T07:19:33;13.50;;;12.23;;
15712;SDS011;7957;51.608;6.916;2023-05-08T07:22:03;13.10;;;12.00;;
15712;SDS011;7957;51.608;6.916;2023-05-08T07:24:30;13.87;;;12.67;;
15712;SDS011;7957;51.608;6.916;2023-05-08T07:26:57;13.03;;;12.03;;
15712;SDS011;7957;51.608;6.916;2023-05-08T07:29:25;13.83;;;12.33;;
15712;SDS011;7957;51.608;6.916;2023-05-08T07:31:52;12.73;;;11.53;;
15712;SDS011;7957;51.608;6.916;2023-05-08T07:34:19;11.70;;;10.70;;
15712;SDS011;7957;51.608;6.916;2023-05-08T07:36:46;11.90;;;10.90;;
15712;SDS011;7957;51.608;6.916;2023-05-08T07:39:14;10.93;;;9.93;;
15712;SDS011;7957;51.608;6.916;2023-05-08T07:41:41;11.20;;;10.10;;
15712;SDS011;7957;51.608;6.916;2023-05-08T07:44:09;9.67;;;8.77;;
15712;SDS011;7957;51.608;6.916;2023-05-08T07:46:36;9.90;;;9.10;;
15712;SDS011;7957;51.608;6.916;2023-05-08T07:49:03;9.47;;;8.67;;
15712;SDS011;7957;51.608;6.916;2023-05-08T07:51:30;9.73;;;8.77;;
15712;SDS011;7957;51.608;6.916;2023-05-08T07:53:57;9.00;;;8.03;;
15712;SDS011;7957;51.608;6.916;2023-05-08T07:56:25;8.73;;;7.80;;
15712;SDS011;7957;51.608;6.916;2023-05-08T07:58:52;9.17;;;7.87;;
15712;SDS011;7957;51.608;6.916;2023-05-08T08:01:19;8.33;;;7.53;;
15712;SDS011;7957;51.608;6.916;2023-05-08T08:03:46;8.23;;;7.33;;
15712;SDS011;7957;51.608;6.916;2023-05-08T08:06:13;7.43;;;6.83;;
15712;SDS011;7957;51.608;6.916;2023-05-08T08:08:41;7.27;;;6.63;;
15712;SDS011;7957;51.608;6.916;2023-05-08T08:11:08;7.27;;;6.57;;
15712;SDS011;7957;51.608;6.916;2023-05-08T08:13:36;6.53;;;6.03;;
15712;SDS011;7957;51.608;6.916;2023-05-08T08:16:03;6.97;;;6.27;;
15712;SDS011;7957;51.608;6.916;2023-05-08T08:18:32;6.00;;;5.50;;
15712;SDS011;7957;51.608;6.916;2023-05-08T08:21:00;6.33;;;5.73;;
15712;SDS011;7957;51.608;6.916;2023-05-08T08:23:29;5.83;;;5.33;;
15712;SDS011;7957;51.608;6.916;2023-05-08T08:25:56;5.50;;;5.00;;
15712;SDS011;7957;51.608;6.916;2023-05-08T08:28:23;5.40;;;4.93;;
15712;SDS011;7957;51.608;6.916;2023-05-08T08:30:53;5.10;;;4.37;;
15712;SDS011;7957;51.608;6.916;2023-05-08T08:33:20;4.77;;;4.37;;
15712;SDS011;7957;51.608;6.916;2023-05-08T08:35:46;5.43;;;4.93;;
15712;SDS011;7957;51.608;6.916;2023-05-08T08:38:13;4.83;;;4.43;;
15712;SDS011;7957;51.608;6.916;2023-05-08T08:40:41;4.30;;;4.00;;
15712;SDS011;7957;51.608;6.916;2023-05-08T08:43:08;4.57;;;4.17;;
15712;SDS011;7957;51.608;6.916;2023-05-08T08:45:35;5.47;;;4.10;;
15712;SDS011;7957;51.608;6.916;2023-05-08T08:48:05;4.43;;;4.07;;
15712;SDS011;7957;51.608;6.916;2023-05-08T08:50:36;4.33;;;3.93;;
15712;SDS011;7957;51.608;6.916;2023-05-08T08:53:09;5.00;;;4.33;;
15712;SDS011;7957;51.608;6.916;2023-05-08T08:55:43;4.57;;;4.17;;
15712;SDS011;7957;51.608;6.916;2023-05-08T08:58:13;5.47;;;4.23;;
15712;SDS011;7957;51.608;6.916;2023-05-08T09:00:44;4.10;;;3.80;;
15712;SDS011;7957;51.608;6.916;2023-05-08T09:03:13;3.93;;;3.63;;
15712;SDS011;7957;51.608;6.916;2023-05-08T09:05:40;4.33;;;3.80;;
15712;SDS011;7957;51.608;6.916;2023-05-08T09:08:08;4.10;;;3.30;;
15712;SDS011;7957;51.608;6.916;2023-05-08T09:10:36;5.90;;;4.10;;
15712;SDS011;7957;51.608;6.916;2023-05-08T09:13:03;4.20;;;3.90;;
15712;SDS011;7957;51.608;6.916;2023-05-08T09:15:31;6.17;;;4.00;;
15712;SDS011;7957;51.608;6.916;2023-05-08T09:17:58;4.50;;;4.10;;
15712;SDS011;7957;51.608;6.916;2023-05-08T09:20:27;4.40;;;4.03;;
15712;SDS011;7957;51.608;6.916;2023-05-08T09:22:55;4.97;;;4.57;;
15712;SDS011;7957;51.608;6.916;2023-05-08T09:25:23;5.40;;;4.70;;
15712;SDS011;7957;51.608;6.916;2023-05-08T09:27:49;5.20;;;4.70;;
15712;SDS011;7957;51.608;6.916;2023-05-08T09:30:16;4.70;;;4.30;;
15712;SDS011;7957;51.608;6.916;2023-05-08T09:32:43;4.67;;;3.97;;
15712;SDS011;7957;51.608;6.916;2023-05-08T09:35:11;4.07;;;3.70;;
15712;SDS011;7957;51.608;6.916;2023-05-08T09:37:39;4.93;;;3.80;;
15712;SDS011;7957;51.608;6.916;2023-05-08T09:40:14;3.77;;;3.40;;
15712;SDS011;7957;51.608;6.916;2023-05-08T09:42:42;3.60;;;3.30;;
15712;SDS011;7957;51.608;6.916;2023-05-08T09:45:10;5.23;;;3.83;;
15712;SDS011;7957;51.608;6.916;2023-05-08T09:47:37;6.27;;;3.47;;
15712;SDS011;7957;51.608;6.916;2023-05-08T09:50:12;3.87;;;3.50;;
15712;SDS011;7957;51.608;6.916;2023-05-08T09:52:45;3.97;;;3.37;;
15712;SDS011;7957;51.608;6.916;2023-05-08T09:55:12;3.60;;;3.30;;
15712;SDS011;7957;51.608;6.916;2023-05-08T09:57:50;4.33;;;3.73;;
15712;SDS011;7957;51.608;6.916;2023-05-08T10:00:18;4.10;;;3.23;;
15712;SDS011;7957;51.608;6.916;2023-05-08T10:02:52;5.00;;;3.40;;
15712;SDS011;7957;51.608;6.916;2023-05-08T10:05:24;4.57;;;3.87;;
15712;SDS011;7957;51.608;6.916;2023-05-08T10:07:55;5.33;;;3.60;;
15712;SDS011;7957;51.608;6.916;2023-05-08T10:10:23;4.70;;;3.90;;
15712;SDS011;7957;51.608;6.916;2023-05-08T10:12:52;3.90;;;3.60;;
15712;SDS011;7957;51.608;6.916;2023-05-08T10:15:20;3.77;;;3.40;;
15712;SDS011;7957;51.608;6.916;2023-05-08T10:17:53;4.30;;;3.90;;
15712;SDS011;7957;51.608;6.916;2023-05-08T10:20:26;4.43;;;4.03;;
15712;SDS011;7957;51.608;6.916;2023-05-08T10:22:56;4.50;;;4.07;;
15712;SDS011;7957;51.608;6.916;2023-05-08T10:25:24;3.87;;;3.57;;
15712;SDS011;7957;51.608;6.916;2023-05-08T10:27:52;4.47;;;4.00;;
15712;SDS011;7957;51.608;6.916;2023-05-08T10:30:24;4.87;;;4.13;;
15712;SDS011;7957;51.608;6.916;2023-05-08T10:32:52;4.53;;;4.13;;
15712;SDS011;7957;51.608;6.916;2023-05-08T10:35:22;4.90;;;4.50;;
15712;SDS011;7957;51.608;6.916;2023-05-08T10:37:50;4.50;;;4.10;;
15712;SDS011;7957;51.608;6.916;2023-05-08T10:40:19;4.00;;;3.70;;
15712;SDS011;7957;51.608;6.916;2023-05-08T10:42:47;4.10;;;3.80;;
15712;SDS011;7957;51.608;6.916;2023-05-08T10:45:15;3.60;;;3.30;;
15712;SDS011;7957;51.608;6.916;2023-05-08T10:50:35;4.13;;;3.70;;
15712;SDS011;7957;51.608;6.916;2023-05-08T10:53:12;3.50;;;3.20;;
15712;SDS011;7957;51.608;6.916;2023-05-08T10:55:46;3.67;;;3.37;;
15712;SDS011;7957;51.608;6.916;2023-05-08T10:58:27;3.77;;;3.47;;
15712;SDS011;7957;51.608;6.916;2023-05-08T11:01:10;3.20;;;3.00;;
15712;SDS011;7957;51.608;6.916;2023-05-08T11:03:39;4.00;;;3.07;;
15712;SDS011;7957;51.608;6.916;2023-05-08T11:06:08;3.23;;;3.03;;
15712;SDS011;7957;51.608;6.916;2023-05-08T11:08:45;3.47;;;3.17;;
15712;SDS011;7957;51.608;6.916;2023-05-08T11:11:24;2.80;;;2.60;;
15712;SDS011;7957;51.608;6.916;2023-05-08T11:13:55;3.40;;;2.90;;
15712;SDS011;7957;51.608;6.916;2023-05-08T11:19:29;2.90;;;2.70;;
15712;SDS011;7957;51.608;6.916;2023-05-08T11:24:46;2.60;;;2.40;;
15712;SDS011;7957;51.608;6.916;2023-05-08T11:27:16;2.60;;;2.40;;
15712;SDS011;7957;51.608;6.916;2023-05-08T11:29:43;2.33;;;2.17;;
15712;SDS011;7957;51.608;6.916;2023-05-08T11:32:10;4.20;;;2.80;;
15712;SDS011;7957;51.608;6.916;2023-05-08T11:34:44;2.60;;;2.40;;
15712;SDS011;7957;51.608;6.916;2023-05-08T11:37:15;2.40;;;2.20;;
15712;SDS011;7957;51.608;6.916;2023-05-08T11:39:43;2.27;;;2.00;;
15712;SDS011;7957;51.608;6.916;2023-05-08T11:45:05;3.20;;;2.03;;
15712;SDS011;7957;51.608;6.916;2023-05-08T11:47:36;2.20;;;2.00;;
15712;SDS011;7957;51.608;6.916;2023-05-08T11:50:04;2.80;;;2.10;;
15712;SDS011;7957;51.608;6.916;2023-05-08T11:52:33;3.80;;;2.10;;
15712;SDS011;7957;51.608;6.916;2023-05-08T11:55:02;2.40;;;1.97;;
15712;SDS011;7957;51.608;6.916;2023-05-08T11:57:30;2.90;;;1.93;;
15712;SDS011;7957;51.608;6.916;2023-05-08T12:00:00;2.20;;;2.00;;
15712;SDS011;7957;51.608;6.916;2023-05-08T12:02:33;3.43;;;2.10;;
15712;SDS011;7957;51.608;6.916;2023-05-08T12:05:01;2.60;;;1.90;;
15712;SDS011;7957;51.608;6.916;2023-05-08T12:07:28;2.10;;;2.00;;
15712;SDS011;7957;51.608;6.916;2023-05-08T12:09:55;1.90;;;1.80;;
15712;SDS011;7957;51.608;6.916;2023-05-08T12:12:22;2.10;;;1.83;;
15712;SDS011;7957;51.608;6.916;2023-05-08T12:15:02;3.10;;;1.93;;
15712;SDS011;7957;51.608;6.916;2023-05-08T12:17:32;2.40;;;2.20;;
15712;SDS011;7957;51.608;6.916;2023-05-08T12:20:08;2.77;;;2.00;;
15712;SDS011;7957;51.608;6.916;2023-05-08T12:22:37;2.00;;;1.90;;
15712;SDS011;7957;51.608;6.916;2023-05-08T12:25:04;2.23;;;1.80;;
15712;SDS011;7957;51.608;6.916;2023-05-08T12:27:32;3.57;;;2.27;;
15712;SDS011;7957;51.608;6.916;2023-05-08T12:29:59;2.57;;;1.93;;
15712;SDS011;7957;51.608;6.916;2023-05-08T12:32:31;3.63;;;2.00;;
15712;SDS011;7957;51.608;6.916;2023-05-08T12:34:58;2.30;;;2.10;;
15712;SDS011;7957;51.608;6.916;2023-05-08T12:37:26;4.20;;;2.10;;
15712;SDS011;7957;51.608;6.916;2023-05-08T12:39:53;2.83;;;2.30;;
15712;SDS011;7957;51.608;6.916;2023-05-08T12:42:20;2.87;;;2.57;;
15712;SDS011;7957;51.608;6.916;2023-05-08T12:44:50;4.07;;;2.60;;
15712;SDS011;7957;51.608;6.916;2023-05-08T12:47:19;2.90;;;2.60;;
15712;SDS011;7957;51.608;6.916;2023-05-08T12:49:46;2.73;;;2.53;;
15712;SDS011;7957;51.608;6.916;2023-05-08T12:52:14;3.30;;;3.07;;
15712;SDS011;7957;51.608;6.916;2023-05-08T12:54:45;3.50;;;2.50;;
15712;SDS011;7957;51.608;6.916;2023-05-08T12:57:13;3.43;;;2.77;;
15712;SDS011;7957;51.608;6.916;2023-05-08T12:59:42;2.80;;;2.60;;
15712;SDS011;7957;51.608;6.916;2023-05-08T13:02:13;3.00;;;2.70;;
15712;SDS011;7957;51.608;6.916;2023-05-08T13:04:42;3.77;;;2.90;;
15712;SDS011;7957;51.608;6.916;2023-05-08T13:07:10;2.70;;;2.47;;
15712;SDS011;7957;51.608;6.916;2023-05-08T13:09:37;4.53;;;3.20;;
15712;SDS011;7957;51.608;6.916;2023-05-08T13:12:05;3.17;;;2.87;;
15712;SDS011;7957;51.608;6.916;2023-05-08T13:14:32;4.73;;;3.17;;
15712;SDS011;7957;51.608;6.916;2023-05-08T13:16:59;4.10;;;3.00;;
15712;SDS011;7957;51.608;6.916;2023-05-08T13:19:26;3.33;;;3.03;;
15712;SDS011;7957;51.608;6.916;2023-05-08T13:21:55;3.07;;;2.80;;
15712;SDS011;7957;51.608;6.916;2023-05-08T13:24:21;3.97;;;3.07;;
15712;SDS011;7957;51.608;6.916;2023-05-08T13:26:49;3.17;;;2.97;;
15712;SDS011;7957;51.608;6.916;2023-05-08T13:29:16;5.67;;;3.40;;
15712;SDS011;7957;51.608;6.916;2023-05-08T13:31:46;3.30;;;3.00;;
15712;SDS011;7957;51.608;6.916;2023-05-08T13:34:13;3.13;;;2.90;;
15712;SDS011;7957;51.608;6.916;2023-05-08T13:36:40;4.03;;;2.77;;
15712;SDS011;7957;51.608;6.916;2023-05-08T13:39:08;3.83;;;3.00;;
15712;SDS011;7957;51.608;6.916;2023-05-08T13:41:36;3.27;;;3.00;;
15712;SDS011;7957;51.608;6.916;2023-05-08T13:44:03;3.13;;;2.93;;
15712;SDS011;7957;51.608;6.916;2023-05-08T13:46:30;3.27;;;2.70;;
15712;SDS011;7957;51.608;6.916;2023-05-08T13:48:57;3.27;;;3.00;;
15712;SDS011;7957;51.608;6.916;2023-05-08T13:51:25;2.80;;;2.57;;
15712;SDS011;7957;51.608;6.916;2023-05-08T13:53:51;2.73;;;2.53;;
15712;SDS011;7957;51.608;6.916;2023-05-08T13:56:20;3.67;;;3.37;;
15712;SDS011;7957;51.608;6.916;2023-05-08T13:58:47;2.97;;;2.77;;
15712;SDS011;7957;51.608;6.916;2023-05-08T14:01:14;3.40;;;3.10;;
15712;SDS011;7957;51.608;6.916;2023-05-08T14:03:41;2.83;;;2.63;;
15712;SDS011;7957;51.608;6.916;2023-05-08T14:06:08;2.77;;;2.57;;
15712;SDS011;7957;51.608;6.916;2023-05-08T14:08:35;4.13;;;2.70;;
15712;SDS011;7957;51.608;6.916;2023-05-08T14:11:02;3.20;;;2.90;;
15712;SDS011;7957;51.608;6.916;2023-05-08T14:13:30;3.00;;;2.80;;
15712;SDS011;7957;51.608;6.916;2023-05-08T14:15:57;2.97;;;2.77;;
15712;SDS011;7957;51.608;6.916;2023-05-08T14:18:24;3.33;;;3.03;;
15712;SDS011;7957;51.608;6.916;2023-05-08T14:20:51;3.40;;;3.10;;
15712;SDS011;7957;51.608;6.916;2023-05-08T14:23:18;3.37;;;2.90;;
15712;SDS011;7957;51.608;6.916;2023-05-08T14:25:45;3.47;;;3.17;;
15712;SDS011;7957;51.608;6.916;2023-05-08T14:28:12;4.00;;;3.40;;
15712;SDS011;7957;51.608;6.916;2023-05-08T14:30:40;3.30;;;3.00;;
15712;SDS011;7957;51.608;6.916;2023-05-08T14:33:07;3.27;;;2.97;;
15712;SDS011;7957;51.608;6.916;2023-05-08T14:35:34;3.13;;;2.93;;
15712;SDS011;7957;51.608;6.916;2023-05-08T14:38:01;3.20;;;2.97;;
15712;SDS011;7957;51.608;6.916;2023-05-08T14:40:28;3.17;;;2.87;;
15712;SDS011;7957;51.608;6.916;2023-05-08T14:42:55;3.40;;;3.07;;
15712;SDS011;7957;51.608;6.916;2023-05-08T14:45:22;5.17;;;3.30;;
15712;SDS011;7957;51.608;6.916;2023-05-08T14:47:51;4.00;;;3.60;;
15712;SDS011;7957;51.608;6.916;2023-05-08T14:50:17;4.10;;;3.67;;
15712;SDS011;7957;51.608;6.916;2023-05-08T14:52:44;4.00;;;3.60;;
15712;SDS011;7957;51.608;6.916;2023-05-08T14:55:11;5.07;;;3.70;;
15712;SDS011;7957;51.608;6.916;2023-05-08T14:57:44;4.50;;;3.17;;
15712;SDS011;7957;51.608;6.916;2023-05-08T15:00:14;3.40;;;3.10;;
15712;SDS011;7957;51.608;6.916;2023-05-08T15:02:43;4.63;;;3.33;;
15712;SDS011;7957;51.608;6.916;2023-05-08T15:05:12;3.30;;;3.00;;
15712;SDS011;7957;51.608;6.916;2023-05-08T15:07:39;3.77;;;3.40;;
15712;SDS011;7957;51.608;6.916;2023-05-08T15:10:07;3.40;;;3.10;;
15712;SDS011;7957;51.608;6.916;2023-05-08T15:12:34;6.07;;;3.17;;